createdAt,value
2023-04-01T00:00:23.796Z,91.75
2023-04-01T00:03:13.254Z,92.27
2023-04-01T00:05:42.843Z,91.60
2023-04-01T00:08:13.628Z,91.03
2023-04-01T00:10:43.096Z,91.44
2023-04-01T00:13:12.693Z,91.76
2023-04-01T00:15:44.484Z,90.96
2023-04-01T00:18:14.838Z,91.76
2023-04-01T00:20:47.461Z,91.35
2023-04-01T00:23:18.858Z,91.93
2023-04-01T00:25:49.440Z,92.50
2023-04-01T00:28:19.791Z,91.48
2023-04-01T00:30:49.566Z,91.33
2023-04-01T00:33:19.363Z,91.27
2023-04-01T00:35:48.546Z,91.39
2023-04-01T00:38:19.831Z,91.24
2023-04-01T00:40:49.300Z,91.47
2023-04-01T00:43:21.484Z,92.63
2023-04-01T00:45:51.905Z,92.20
2023-04-01T00:48:26.390Z,91.22
2023-04-01T00:51:00.329Z,91.87
2023-04-01T00:53:32.058Z,91.31
2023-04-01T00:56:06.805Z,91.28
2023-04-01T00:58:40.629Z,91.63
2023-04-01T01:01:11.924Z,92.02
2023-04-01T01:03:41.446Z,91.55
2023-04-01T01:06:22.967Z,92.18
2023-04-01T01:09:11.815Z,91.83
2023-04-01T01:11:44.798Z,92.01
2023-04-01T01:14:27.112Z,91.74
2023-04-01T01:17:01.635Z,91.09
2023-04-01T01:20:00.601Z,91.21
2023-04-01T01:22:48.057Z,91.07
2023-04-01T01:25:34.528Z,91.56
2023-04-01T01:28:18.935Z,91.67
2023-04-01T01:30:54.292Z,91.67
2023-04-01T01:33:46.755Z,91.46
2023-04-01T01:36:22.139Z,91.63
2023-04-01T01:38:53.150Z,91.92
2023-04-01T01:41:24.817Z,92.44
2023-04-01T01:43:58.759Z,91.89
2023-04-01T01:46:30.868Z,91.45
2023-04-01T01:49:02.421Z,92.01
2023-04-01T01:51:33.341Z,92.31
2023-04-01T01:54:04.481Z,93.41
2023-04-01T01:56:38.332Z,91.91
2023-04-01T01:59:13.063Z,92.04
2023-04-01T02:01:47.011Z,92.31
2023-04-01T02:04:18.556Z,92.09
2023-04-01T02:06:55.507Z,91.76
2023-04-01T02:09:24.844Z,91.21
2023-04-01T02:11:58.518Z,91.93
2023-04-01T02:14:31.274Z,91.91
2023-04-01T02:17:06.578Z,91.81
2023-04-01T02:19:40.215Z,91.40
2023-04-01T02:22:15.768Z,91.56
2023-04-01T02:24:46.512Z,92.06
2023-04-01T02:27:16.147Z,92.18
2023-04-01T02:29:45.465Z,91.68
2023-04-01T02:32:16.851Z,91.57
2023-04-01T02:34:46.705Z,91.78
2023-04-01T02:37:18.292Z,92.22
2023-04-01T02:39:47.403Z,92.05
2023-04-01T02:42:17.022Z,91.29
2023-04-01T02:44:46.284Z,91.04
2023-04-01T02:47:15.686Z,91.86
2023-04-01T02:49:44.877Z,91.26
2023-04-01T02:52:14.240Z,91.31
2023-04-01T02:54:44.732Z,91.29
2023-04-01T02:57:14.122Z,91.30
2023-04-01T02:59:43.375Z,91.05
2023-04-01T03:02:12.787Z,91.00
2023-04-01T03:04:42.139Z,91.31
2023-04-01T03:07:12.319Z,91.84
2023-04-01T03:09:43.221Z,91.82
2023-04-01T03:12:12.580Z,91.73
2023-04-01T03:14:50.068Z,91.63
2023-04-01T03:17:20.162Z,91.66
2023-04-01T03:19:49.463Z,92.06
2023-04-01T03:22:21.973Z,92.17
2023-04-01T03:24:52.733Z,91.26
2023-04-01T03:27:22.216Z,91.20
2023-04-01T03:29:51.363Z,91.65
2023-04-01T03:32:21.090Z,92.19
2023-04-01T03:34:50.462Z,92.15
2023-04-01T03:37:19.827Z,91.45
2023-04-01T03:39:49.084Z,91.59
2023-04-01T03:42:19.930Z,91.55
2023-04-01T03:44:48.962Z,91.56
2023-04-01T03:47:18.321Z,91.35
2023-04-01T03:49:47.465Z,91.60
2023-04-01T03:52:16.845Z,91.82
2023-04-01T03:54:46.113Z,92.13
2023-04-01T03:57:15.632Z,91.85
2023-04-01T03:59:46.322Z,91.58
2023-04-01T04:02:15.596Z,91.63
2023-04-01T04:04:45.988Z,92.95
2023-04-01T04:07:15.420Z,93.14
2023-04-01T04:10:02.251Z,92.54
2023-04-01T04:12:32.511Z,92.32
2023-04-01T04:15:03.385Z,92.01
2023-04-01T04:17:32.605Z,92.11
2023-04-01T04:20:02.045Z,92.18
2023-04-01T04:22:31.288Z,92.10
2023-04-01T04:25:05.888Z,91.45
2023-04-01T04:27:35.436Z,92.44
2023-04-01T04:30:12.462Z,92.15
2023-04-01T04:32:43.243Z,92.35
2023-04-01T04:35:14.563Z,92.31
2023-04-01T04:37:43.724Z,93.76
2023-04-01T04:40:13.782Z,93.45
2023-04-01T04:42:44.479Z,93.53
2023-04-01T04:45:18.238Z,92.79
2023-04-01T04:47:55.926Z,93.05
2023-04-01T04:50:26.461Z,92.73
2023-04-01T04:52:55.573Z,92.60
2023-04-01T04:55:25.145Z,93.41
2023-04-01T04:58:13.453Z,92.80
2023-04-01T05:00:47.045Z,93.53
2023-04-01T05:03:23.413Z,93.65
2023-04-01T05:05:53.807Z,93.97
2023-04-01T05:08:22.963Z,94.23
2023-04-01T05:10:52.389Z,93.27
2023-04-01T05:13:21.481Z,93.46
2023-04-01T05:15:52.480Z,93.46
2023-04-01T05:18:21.690Z,93.27
2023-04-01T05:20:51.770Z,93.90
2023-04-01T05:23:22.781Z,93.83
2023-04-01T05:25:53.843Z,93.79
2023-04-01T05:28:23.295Z,94.09
2023-04-01T05:30:54.275Z,94.11
2023-04-01T05:33:28.902Z,94.12
2023-04-01T05:35:59.128Z,94.84
2023-04-01T05:38:28.251Z,95.04
2023-04-01T05:41:01.791Z,95.21
2023-04-01T05:43:31.988Z,95.50
2023-04-01T05:46:10.271Z,95.63
2023-04-01T05:48:47.671Z,95.40
2023-04-01T05:51:18.270Z,94.94
2023-04-01T05:53:47.405Z,94.60
2023-04-01T05:56:16.859Z,95.91
2023-04-01T05:58:55.284Z,95.04
2023-04-01T06:01:27.963Z,95.85
2023-04-01T06:03:57.309Z,96.16
2023-04-01T06:06:31.989Z,96.19
2023-04-01T06:09:15.736Z,96.18
2023-04-01T06:12:26.273Z,95.51
2023-04-01T06:15:11.164Z,96.22
2023-04-01T06:18:03.444Z,96.36
2023-04-01T06:20:43.350Z,96.03
2023-04-01T06:23:34.718Z,95.52
2023-04-01T06:26:15.008Z,95.63
2023-04-01T06:29:09.500Z,94.85
2023-04-01T06:32:16.579Z,96.87
2023-04-01T06:35:02.888Z,96.87
2023-04-01T06:37:55.584Z,96.34
2023-04-01T06:40:57.202Z,96.19
2023-04-01T06:43:38.311Z,96.81
2023-04-01T06:46:39.905Z,97.09
2023-04-01T06:49:43.905Z,96.05
2023-04-01T06:52:43.776Z,96.89
2023-04-01T06:55:39.773Z,96.14
2023-04-01T06:58:48.718Z,96.52
2023-04-01T07:01:24.833Z,96.95
2023-04-01T07:03:59.128Z,96.22
2023-04-01T07:06:33.653Z,96.96
2023-04-01T07:09:13.014Z,96.46
2023-04-01T07:12:08.414Z,95.92
2023-04-01T07:14:58.123Z,95.93
2023-04-01T07:17:32.328Z,95.50
2023-04-01T07:20:11.420Z,96.01
2023-04-01T07:22:44.655Z,96.06
2023-04-01T07:25:48.089Z,95.81
2023-04-01T07:28:37.190Z,95.44
2023-04-01T07:31:50.157Z,95.99
2023-04-01T07:34:27.159Z,96.16
2023-04-01T07:37:02.468Z,96.47
2023-04-01T07:39:43.885Z,96.51
2023-04-01T07:42:51.391Z,95.81
2023-04-01T07:45:26.670Z,95.73
2023-04-01T07:48:11.939Z,96.42
2023-04-01T07:50:51.196Z,96.61
2023-04-01T07:53:27.727Z,95.33
2023-04-01T07:56:07.270Z,96.19
2023-04-01T07:58:53.869Z,95.76
2023-04-01T08:01:48.235Z,95.78
2023-04-01T08:04:31.459Z,95.43
2023-04-01T08:07:09.181Z,95.42
2023-04-01T08:09:49.771Z,95.18
2023-04-01T08:12:38.090Z,95.74
2023-04-01T08:15:30.895Z,96.17
2023-04-01T08:18:32.376Z,96.82
2023-04-01T08:21:04.638Z,96.06
2023-04-01T08:23:35.956Z,96.01
2023-04-01T08:26:10.945Z,95.24
2023-04-01T08:28:49.415Z,95.09
2023-04-01T08:31:26.918Z,95.00
2023-04-01T08:33:57.550Z,95.29
2023-04-01T08:36:33.390Z,95.38
2023-04-01T08:39:17.680Z,95.42
2023-04-01T08:42:19.404Z,94.97
2023-04-01T08:45:41.616Z,95.59
2023-04-01T08:48:47.030Z,94.86
2023-04-01T08:51:42.218Z,95.11
2023-04-01T08:54:39.073Z,95.18
2023-04-01T08:57:17.560Z,94.95
2023-04-01T09:00:21.570Z,95.19
2023-04-01T09:03:29.299Z,95.57
2023-04-01T09:06:35.411Z,96.07
2023-04-01T09:09:28.103Z,95.73
2023-04-01T09:12:21.093Z,96.64
2023-04-01T09:15:23.798Z,96.68
2023-04-01T09:18:26.645Z,96.07
2023-04-01T09:21:27.036Z,95.94
2023-04-01T09:24:09.815Z,94.68
2023-04-01T09:26:57.296Z,95.10
2023-04-01T09:30:01.744Z,95.50
2023-04-01T09:32:54.954Z,95.39
2023-04-01T09:35:41.560Z,95.43
2023-04-01T09:38:23.125Z,95.74
2023-04-01T09:40:58.591Z,95.55
2023-04-01T09:43:58.145Z,95.25
2023-04-01T09:46:39.980Z,95.63
2023-04-01T09:49:41.288Z,95.53
2023-04-01T09:52:31.828Z,94.98
2023-04-01T09:55:31.697Z,94.96
2023-04-01T09:58:31.664Z,95.27
2023-04-01T10:01:47.884Z,94.78
2023-04-01T10:05:06.870Z,94.83
2023-04-01T10:08:24.336Z,94.84
2023-04-01T10:11:24.064Z,94.67
2023-04-01T10:14:31.114Z,95.29
2023-04-01T10:17:39.296Z,94.90
2023-04-01T10:20:46.782Z,94.50
2023-04-01T10:23:34.367Z,94.40
2023-04-01T10:27:02.671Z,94.08
2023-04-01T10:30:25.976Z,94.22
2023-04-01T10:33:34.155Z,94.06
2023-04-01T10:36:36.639Z,94.11
2023-04-01T10:39:41.728Z,94.78
2023-04-01T10:43:04.316Z,95.50
2023-04-01T10:46:31.548Z,95.36
2023-04-01T10:49:27.941Z,94.64
2023-04-01T10:52:34.705Z,95.49
2023-04-01T10:56:05.177Z,95.16
2023-04-01T10:59:34.071Z,93.87
2023-04-01T11:03:13.260Z,94.19
2023-04-01T11:06:40.384Z,94.24
2023-04-01T11:09:57.256Z,94.11
2023-04-01T11:12:59.020Z,94.81
2023-04-01T11:16:00.824Z,94.35
2023-04-01T11:19:09.060Z,94.27
2023-04-01T11:22:11.431Z,94.82
2023-04-01T11:25:26.386Z,94.45
2023-04-01T11:28:32.795Z,95.06
2023-04-01T11:31:27.476Z,94.88
2023-04-01T11:34:07.158Z,94.51
2023-04-01T11:36:46.806Z,93.88
2023-04-01T11:39:32.114Z,93.89
2023-04-01T11:42:18.736Z,93.58
2023-04-01T11:45:25.040Z,93.54
2023-04-01T11:48:15.555Z,94.19
2023-04-01T11:51:04.577Z,93.82
2023-04-01T11:53:49.758Z,94.03
2023-04-01T11:56:34.858Z,94.65
2023-04-01T11:59:27.662Z,94.08
2023-04-01T12:02:07.822Z,94.29
2023-04-01T12:05:18.766Z,93.59
2023-04-01T12:08:11.540Z,93.99
2023-04-01T12:10:45.172Z,94.00
2023-04-01T12:13:36.657Z,94.35
2023-04-01T12:16:28.606Z,93.65
2023-04-01T12:19:06.777Z,93.42
2023-04-01T12:21:39.063Z,93.73
2023-04-01T12:24:39.339Z,93.76
2023-04-01T12:27:32.912Z,93.74
2023-04-01T12:30:29.094Z,93.55
2023-04-01T12:33:15.465Z,94.06
2023-04-01T12:36:01.064Z,93.75
2023-04-01T12:38:41.303Z,93.83
2023-04-01T12:41:11.823Z,93.22
2023-04-01T12:44:10.219Z,93.62
2023-04-01T12:47:02.942Z,93.65
2023-04-01T12:49:50.600Z,93.66
2023-04-01T12:52:34.113Z,93.53
2023-04-01T12:55:37.363Z,92.67
2023-04-01T12:58:47.625Z,93.48
2023-04-01T13:01:37.234Z,93.20
2023-04-01T13:04:51.020Z,93.73
2023-04-01T13:07:55.236Z,93.18
2023-04-01T13:10:40.754Z,93.18
2023-04-01T13:13:29.559Z,93.15
2023-04-01T13:16:04.143Z,93.02
2023-04-01T13:18:42.175Z,93.63
2023-04-01T13:21:19.009Z,93.17
2023-04-01T13:24:00.029Z,92.81
2023-04-01T13:26:36.929Z,92.79
2023-04-01T13:29:13.348Z,92.30
2023-04-01T13:31:57.976Z,92.48
2023-04-01T13:34:42.026Z,93.00
2023-04-01T13:37:28.302Z,92.40
2023-04-01T13:40:16.533Z,92.66
2023-04-01T13:42:51.597Z,93.38
2023-04-01T13:45:25.738Z,93.90
2023-04-01T13:48:50.124Z,93.74
2023-04-01T13:51:35.547Z,93.87
2023-04-01T13:54:37.418Z,93.61
2023-04-01T13:57:26.253Z,93.54
2023-04-01T14:00:09.909Z,92.64
2023-04-01T14:03:03.006Z,92.73
2023-04-01T14:05:55.824Z,92.63
2023-04-01T14:08:44.730Z,92.99
2023-04-01T14:11:21.123Z,93.75
2023-04-01T14:14:02.936Z,93.35
2023-04-01T14:17:15.439Z,93.41
2023-04-01T14:20:00.395Z,93.32
2023-04-01T14:22:40.694Z,93.16
2023-04-01T14:25:34.982Z,93.14
2023-04-01T14:28:18.897Z,93.31
2023-04-01T14:31:10.727Z,92.86
2023-04-01T14:33:53.785Z,92.58
2023-04-01T14:36:37.915Z,93.26
2023-04-01T14:39:22.665Z,92.68
2023-04-01T14:42:15.438Z,93.23
2023-04-01T14:45:22.563Z,92.71
2023-04-01T14:47:56.903Z,93.42
2023-04-01T14:50:30.245Z,93.46
2023-04-01T14:53:02.256Z,94.22
2023-04-01T14:55:37.005Z,93.26
2023-04-01T14:58:14.823Z,92.87
2023-04-01T15:01:02.516Z,93.10
2023-04-01T15:03:39.468Z,93.25
2023-04-01T15:06:38.049Z,92.86
2023-04-01T15:09:20.956Z,93.03
2023-04-01T15:12:03.285Z,93.30
2023-04-01T15:14:44.794Z,92.90
2023-04-01T15:17:36.432Z,93.09
2023-04-01T15:20:27.183Z,93.21
2023-04-01T15:23:09.640Z,92.97
2023-04-01T15:25:56.665Z,93.14
2023-04-01T15:28:32.587Z,92.32
2023-04-01T15:31:11.970Z,91.72
2023-04-01T15:34:05.889Z,92.51
2023-04-01T15:36:44.140Z,92.56
2023-04-01T15:39:17.870Z,92.33
2023-04-01T15:42:10.915Z,92.19
2023-04-01T15:45:08.746Z,92.36
2023-04-01T15:47:43.878Z,92.02
2023-04-01T15:50:48.810Z,92.03
2023-04-01T15:53:36.782Z,92.16
2023-04-01T15:56:22.970Z,92.52
2023-04-01T15:59:01.755Z,92.77
2023-04-01T16:01:46.084Z,92.54
2023-04-01T16:04:34.976Z,91.94
2023-04-01T16:07:13.224Z,91.87
2023-04-01T16:10:12.432Z,91.48
2023-04-01T16:12:55.386Z,91.43
2023-04-01T16:15:30.494Z,91.09
2023-04-01T16:18:16.397Z,91.17
2023-04-01T16:20:55.961Z,91.17
2023-04-01T16:23:34.274Z,91.06
2023-04-01T16:26:11.969Z,91.18
2023-04-01T16:28:51.305Z,91.73
2023-04-01T16:31:37.647Z,91.08
2023-04-01T16:34:16.933Z,91.33
2023-04-01T16:36:52.703Z,91.15
2023-04-01T16:39:41.851Z,90.86
2023-04-01T16:42:33.417Z,90.92
2023-04-01T16:45:17.641Z,91.57
2023-04-01T16:47:56.712Z,91.26
2023-04-01T16:50:30.892Z,91.23
2023-04-01T16:53:12.364Z,90.91
2023-04-01T16:55:51.144Z,90.26
2023-04-01T16:58:27.546Z,90.49
2023-04-01T17:01:04.909Z,90.98
2023-04-01T17:03:41.241Z,91.08
2023-04-01T17:06:30.648Z,90.82
2023-04-01T17:09:22.984Z,90.76
2023-04-01T17:11:59.614Z,90.63
2023-04-01T17:14:39.881Z,90.81
2023-04-01T17:17:20.412Z,91.03
2023-04-01T17:19:59.424Z,91.11
2023-04-01T17:22:38.008Z,90.55
2023-04-01T17:25:29.246Z,90.32
2023-04-01T17:28:07.450Z,90.14
2023-04-01T17:30:41.228Z,89.60
2023-04-01T17:33:38.210Z,90.19
2023-04-01T17:36:19.670Z,90.45
2023-04-01T17:39:03.720Z,90.29
2023-04-01T17:41:44.849Z,89.85
2023-04-01T17:44:25.295Z,90.21
2023-04-01T17:47:27.542Z,90.77
2023-04-01T17:50:06.150Z,90.59
2023-04-01T17:52:40.580Z,90.39
2023-04-01T17:55:36.934Z,90.53
2023-04-01T17:58:14.188Z,90.54
2023-04-01T18:01:03.509Z,89.98
2023-04-01T18:04:07.194Z,89.83
2023-04-01T18:06:42.878Z,90.68
2023-04-01T18:09:25.125Z,90.21
2023-04-01T18:12:08.781Z,90.45
2023-04-01T18:15:07.887Z,90.02
2023-04-01T18:17:54.591Z,89.93
2023-04-01T18:20:36.397Z,89.78
2023-04-01T18:23:14.571Z,90.52
2023-04-01T18:25:49.226Z,90.38
2023-04-01T18:28:25.949Z,89.94
2023-04-01T18:30:59.010Z,89.95
2023-04-01T18:33:36.445Z,90.77
2023-04-01T18:36:19.181Z,90.26
2023-04-01T18:38:52.646Z,90.34
2023-04-01T18:41:35.785Z,90.39
2023-04-01T18:44:29.020Z,90.63
2023-04-01T18:47:08.075Z,90.45
2023-04-01T18:49:48.346Z,90.34
2023-04-01T18:52:25.513Z,90.74
2023-04-01T18:55:13.921Z,90.52
2023-04-01T18:57:48.772Z,90.80
2023-04-01T19:00:24.410Z,90.21
2023-04-01T19:03:00.330Z,90.43
2023-04-01T19:05:34.930Z,89.84
2023-04-01T19:08:33.769Z,90.09
2023-04-01T19:11:12.148Z,90.35
2023-04-01T19:13:52.556Z,90.05
2023-04-01T19:16:34.757Z,89.84
2023-04-01T19:19:19.006Z,89.76
2023-04-01T19:21:57.717Z,89.35
2023-04-01T19:25:05.512Z,89.66
2023-04-01T19:27:39.757Z,89.38
2023-04-01T19:30:30.613Z,89.87
2023-04-01T19:33:09.520Z,90.00
2023-04-01T19:35:47.068Z,90.16
2023-04-01T19:38:26.200Z,90.04
2023-04-01T19:41:00.192Z,89.77
2023-04-01T19:43:52.085Z,89.77
2023-04-01T19:46:32.376Z,89.63
2023-04-01T19:49:37.104Z,89.23
2023-04-01T19:52:15.698Z,89.24
2023-04-01T19:54:51.782Z,89.35
2023-04-01T19:57:32.521Z,88.79
2023-04-01T20:00:08.812Z,89.33
2023-04-01T20:02:58.415Z,89.21
2023-04-01T20:05:43.946Z,89.33
2023-04-01T20:08:24.912Z,89.10
2023-04-01T20:11:07.217Z,89.25
2023-04-01T20:13:50.382Z,89.54
2023-04-01T20:16:20.712Z,89.77
2023-04-01T20:18:54.718Z,89.40
2023-04-01T20:21:43.324Z,88.72
2023-04-01T20:24:23.809Z,89.40
2023-04-01T20:27:04.389Z,89.93
2023-04-01T20:29:57.921Z,89.55
2023-04-01T20:32:47.442Z,89.40
2023-04-01T20:35:38.745Z,89.85
2023-04-01T20:38:36.969Z,90.00
2023-04-01T20:41:15.548Z,90.25
2023-04-01T20:44:06.182Z,89.59
2023-04-01T20:46:48.155Z,89.91
2023-04-01T20:49:43.507Z,90.08
2023-04-01T20:52:34.934Z,89.93
2023-04-01T20:55:29.808Z,89.67
2023-04-01T20:58:12.401Z,89.18
2023-04-01T21:00:56.693Z,89.35
2023-04-01T21:03:40.855Z,89.68
2023-04-01T21:06:52.230Z,90.58
2023-04-01T21:09:34.470Z,90.83
2023-04-01T21:12:14.705Z,90.73
2023-04-01T21:15:02.410Z,90.40
2023-04-01T21:17:53.189Z,90.78
2023-04-01T21:20:45.360Z,91.20
2023-04-01T21:23:30.479Z,91.36
2023-04-01T21:26:11.655Z,91.62
2023-04-01T21:28:54.140Z,91.20
2023-04-01T21:31:42.154Z,91.42
2023-04-01T21:34:46.252Z,91.85
2023-04-01T21:37:51.967Z,91.95
2023-04-01T21:40:55.805Z,91.52
2023-04-01T21:43:38.465Z,91.63
2023-04-01T21:46:53.068Z,91.44
2023-04-01T21:49:52.396Z,91.89
2023-04-01T21:52:58.402Z,91.79
2023-04-01T21:56:13.665Z,91.35
2023-04-01T21:59:22.954Z,90.82
2023-04-01T22:02:21.331Z,90.42
2023-04-01T22:05:00.218Z,90.69
2023-04-01T22:07:37.744Z,90.61
2023-04-01T22:10:23.934Z,89.82
2023-04-01T22:13:01.559Z,89.53
2023-04-01T22:15:47.867Z,89.60
2023-04-01T22:18:23.849Z,90.07
2023-04-01T22:21:06.076Z,90.29
2023-04-01T22:23:41.756Z,89.92
2023-04-01T22:26:20.073Z,90.44
2023-04-01T22:28:57.632Z,89.67
2023-04-01T22:31:34.322Z,89.47
2023-04-01T22:34:11.031Z,89.74
2023-04-01T22:36:49.228Z,89.16
2023-04-01T22:39:46.401Z,89.39
2023-04-01T22:42:31.709Z,90.03
2023-04-01T22:45:13.021Z,89.21
2023-04-01T22:47:50.683Z,89.31
2023-04-01T22:50:24.019Z,88.77
2023-04-01T22:52:59.845Z,89.65
2023-04-01T22:55:34.313Z,90.08
2023-04-01T22:58:10.811Z,90.11
2023-04-01T23:00:45.760Z,89.62
2023-04-01T23:03:21.392Z,89.96
2023-04-01T23:05:54.033Z,89.95
2023-04-01T23:08:47.132Z,90.12
2023-04-01T23:11:20.628Z,89.77
2023-04-01T23:13:56.156Z,89.85
2023-04-01T23:16:32.564Z,90.14
2023-04-01T23:19:11.286Z,90.11
2023-04-01T23:21:46.884Z,89.49
2023-04-01T23:24:22.609Z,89.84
2023-04-01T23:26:58.280Z,89.89
2023-04-01T23:29:29.449Z,89.76
2023-04-01T23:32:02.769Z,89.32
2023-04-01T23:34:34.191Z,89.19
2023-04-01T23:37:10.917Z,88.71
2023-04-01T23:39:42.517Z,87.89
2023-04-01T23:42:20.727Z,86.55
2023-04-01T23:44:53.584Z,85.91
2023-04-01T23:47:26.125Z,85.25
2023-04-01T23:49:58.131Z,84.53
2023-04-01T23:52:29.604Z,84.01
2023-04-01T23:55:04.220Z,84.44
2023-04-01T23:57:36.653Z,83.76
